Garcia Miguel — CUGT9 — position and weather

sailwx.info

Track history (hours):
 
Tides and Currents Weather Stations Pressure Air Temp Water Temp Dewpoint Dewpoint Depression Visibility Wind Speed Wind Dir Waves Ship Positions

Garcia Miguel

Last reported at 2015-Jul-03 01:32 UTC. Time now 2015-Jul-06 13:31 UTC.
Position N 39°21' W 009°22'.

Length 20 m.

Type: Fishing. MMSI: 263500286.

Date/timePositionNaut miles runAvg speedWind from/ knotsBaromVisibWave heightAir tempDewpointWater temp
2015-Jul-03 01:32N 39°21' W 009°22'7 6.7
2015-Jul-03 00:32N 39°18' W 009°30'7 6.9
2015-Jul-02 23:32N 39°16' W 009°39'7 6.4
2015-Jul-02 22:23N 39°14' W 009°48'6 6.5
2015-Jul-02 21:29N 39°13' W 009°55'6 6.7
2015-Jul-02 20:33N 39°11' W 010°03'17 7.0
2015-Jul-02 18:03N 39°08' W 010°25'  
2015-Jun-29 02:30N 37°51' W 023°56'7 7.8
2015-Jun-29 01:33N 37°50' W 024°06'7 7.5
2015-Jun-29 00:33N 37°49' W 024°15'8 7.5
2015-Jun-28 23:33N 37°49' W 024°24'7 7.5
2015-Jun-28 22:33N 37°48' W 024°34'8 7.6
2015-Jun-28 21:33N 37°47' W 024°43'8 7.5
2015-Jun-28 20:33N 37°46' W 024°53'8 7.5
2015-Jun-28 19:34N 37°45' W 025°02'7 7.5
2015-Jun-28 18:33N 37°43' W 025°11'7 7.5
2015-Jun-28 17:33N 37°42' W 025°21'7 7.4
2015-Jun-28 16:33N 37°42' W 025°30'7 7.1
2015-Jun-28 15:33N 37°44' W 025°39'1 1.4
2015-Jun-28 14:33N 37°44' W 025°40'0 0.4
2015-Jun-28 13:33N 37°44' W 025°40'6 6.3
2015-Jun-28 12:33N 37°43' W 025°48'7 7.4
2015-Jun-28 11:33N 37°43' W 025°57'8 7.9
2015-Jun-28 10:33N 37°41' W 026°07'8 7.6
2015-Jun-28 09:34N 37°40' W 026°16'8 7.7
2015-Jun-28 08:33N 37°40' W 026°26'8 7.7
2015-Jun-28 07:33N 37°40' W 026°36'7 7.5
2015-Jun-28 06:34N 37°40' W 026°45'7 7.1
2015-Jun-28 05:33N 37°39' W 026°54'7 7.0
2015-Jun-28 04:32N 37°40' W 027°03'7 7.2
2015-Jun-28 03:34N 37°40' W 027°12'7 6.9
2015-Jun-28 02:33N 37°40' W 027°21'7 6.8
2015-Jun-28 01:33N 37°41' W 027°29'7 7.4
2015-Jun-28 00:33N 37°41' W 027°39'7 7.3
2015-Jun-27 23:33N 37°41' W 027°48'7 6.8
2015-Jun-27 22:33N 37°40' W 027°56'7 7.1
2015-Jun-27 21:33N 37°39' W 028°05'8 7.6
2015-Jun-27 20:33N 37°39' W 028°15'8 7.6
2015-Jun-27 19:33N 37°39' W 028°24'8 7.9
2015-Jun-27 18:33N 37°38' W 028°34'7 7.4
2015-Jun-27 17:33N 37°37' W 028°44'8 7.5
2015-Jun-27 16:33N 37°37' W 028°53'8 7.8
2015-Jun-27 15:33N 37°36' W 029°03'8 7.8
2015-Jun-27 14:33N 37°34' W 029°12'8 7.7
2015-Jun-27 13:33N 37°33' W 029°22'8 7.7
2015-Jun-27 12:31N 37°31' W 029°32'95 7.3
2015-Jun-26 23:33N 37°06' W 031°27'3 1.0
2015-Jun-26 20:33N 37°06' W 031°31'1 0.9
2015-Jun-26 19:29N 37°06' W 031°29'1 0.1
2015-Jun-26 12:33N 37°07' W 031°30'  
Track history (hours):
 
Tides and Currents Weather Stations Pressure Air Temp Water Temp Dewpoint Dewpoint Depression Visibility Wind Speed Wind Dir Waves Ship Positions

Garcia Miguel

Last reported at 2015-Jul-03 01:32 UTC. Time now 2015-Jul-06 13:31 UTC.
Position N 39°21' W 009°22'.

Length 20 m.

Type: Fishing. MMSI: 263500286.

Date/timePositionNaut miles runAvg speedWind from/ knotsBaromVisibWave heightAir tempDewpointWater temp
2015-Jul-03 01:32N 39°21' W 009°22'7 6.7
2015-Jul-03 00:32N 39°18' W 009°30'7 6.9
2015-Jul-02 23:32N 39°16' W 009°39'7 6.4
2015-Jul-02 22:23N 39°14' W 009°48'6 6.5
2015-Jul-02 21:29N 39°13' W 009°55'6 6.7
2015-Jul-02 20:33N 39°11' W 010°03'17 7.0
2015-Jul-02 18:03N 39°08' W 010°25'  
2015-Jun-29 02:30N 37°51' W 023°56'7 7.8
2015-Jun-29 01:33N 37°50' W 024°06'7 7.5
2015-Jun-29 00:33N 37°49' W 024°15'8 7.5
2015-Jun-28 23:33N 37°49' W 024°24'7 7.5
2015-Jun-28 22:33N 37°48' W 024°34'8 7.6
2015-Jun-28 21:33N 37°47' W 024°43'8 7.5
2015-Jun-28 20:33N 37°46' W 024°53'8 7.5
2015-Jun-28 19:34N 37°45' W 025°02'7 7.5
2015-Jun-28 18:33N 37°43' W 025°11'7 7.5
2015-Jun-28 17:33N 37°42' W 025°21'7 7.4
2015-Jun-28 16:33N 37°42' W 025°30'7 7.1
2015-Jun-28 15:33N 37°44' W 025°39'1 1.4
2015-Jun-28 14:33N 37°44' W 025°40'0 0.4
2015-Jun-28 13:33N 37°44' W 025°40'6 6.3
2015-Jun-28 12:33N 37°43' W 025°48'7 7.4
2015-Jun-28 11:33N 37°43' W 025°57'8 7.9
2015-Jun-28 10:33N 37°41' W 026°07'8 7.6
2015-Jun-28 09:34N 37°40' W 026°16'8 7.7
2015-Jun-28 08:33N 37°40' W 026°26'8 7.7
2015-Jun-28 07:33N 37°40' W 026°36'7 7.5
2015-Jun-28 06:34N 37°40' W 026°45'7 7.1
2015-Jun-28 05:33N 37°39' W 026°54'7 7.0
2015-Jun-28 04:32N 37°40' W 027°03'7 7.2
2015-Jun-28 03:34N 37°40' W 027°12'7 6.9
2015-Jun-28 02:33N 37°40' W 027°21'7 6.8
2015-Jun-28 01:33N 37°41' W 027°29'7 7.4
2015-Jun-28 00:33N 37°41' W 027°39'7 7.3
2015-Jun-27 23:33N 37°41' W 027°48'7 6.8
2015-Jun-27 22:33N 37°40' W 027°56'7 7.1
2015-Jun-27 21:33N 37°39' W 028°05'8 7.6
2015-Jun-27 20:33N 37°39' W 028°15'8 7.6
2015-Jun-27 19:33N 37°39' W 028°24'8 7.9
2015-Jun-27 18:33N 37°38' W 028°34'7 7.4
2015-Jun-27 17:33N 37°37' W 028°44'8 7.5
2015-Jun-27 16:33N 37°37' W 028°53'8 7.8
2015-Jun-27 15:33N 37°36' W 029°03'8 7.8
2015-Jun-27 14:33N 37°34' W 029°12'8 7.7
2015-Jun-27 13:33N 37°33' W 029°22'8 7.7
2015-Jun-27 12:31N 37°31' W 029°32'95 7.3
2015-Jun-26 23:33N 37°06' W 031°27'3 1.0
2015-Jun-26 20:33N 37°06' W 031°31'1 0.9
2015-Jun-26 19:29N 37°06' W 031°29'1 0.1
2015-Jun-26 12:33N 37°07' W 031°30'  

Dump ship's entire track history